Time;durP1;ratioP1;P1;durP2;ratioP2;P2;SDS_P1;SDS_P2;PMS_P1;PMS_P2;Temp;Humidity;BMP_temperature;BMP_pressure;BME280_temperature;BME280_humidity;BME280_pressure;Samples;Min_cycle;Max_cycle;Signal;HPM_P1;HPM_P2
2024/01/21 00:01:17;;;;;;;;;47.25;34.25;;;;;-144.62;100.00;60556.56;5033177;28;45400;-76
2024/01/21 00:03:43;;;;;;;;;49.00;42.00;;;;;-144.62;100.00;60556.56;5032984;28;45331;-76
2024/01/21 00:06:08;;;;;;;;;41.25;31.00;;;;;-144.62;100.00;60556.56;5035663;27;45507;-76
2024/01/21 00:08:34;;;;;;;;;35.75;32.00;;;;;-144.62;100.00;60556.56;5033633;28;45462;-76
2024/01/21 00:10:59;;;;;;;;;45.50;37.00;;;;;-144.62;100.00;60556.56;5038500;28;45428;-76
2024/01/21 00:13:24;;;;;;;;;45.50;36.50;;;;;-144.62;100.00;60556.56;5031357;28;45308;-76
2024/01/21 00:15:50;;;;;;;;;39.75;33.25;;;;;-144.62;100.00;60556.56;5039147;28;47035;-76
2024/01/21 00:18:16;;;;;;;;;42.50;36.25;;;;;-144.62;100.00;60556.56;5034151;27;45572;-76
2024/01/21 00:20:41;;;;;;;;;51.50;31.50;;;;;-144.62;100.00;60556.56;5039568;28;45430;-76
2024/01/21 00:23:07;;;;;;;;;38.50;33.75;;;;;-144.62;100.00;60556.56;5035002;28;45348;-76
2024/01/21 00:25:32;;;;;;;;;38.75;35.00;;;;;-144.62;100.00;60556.56;5037199;28;45388;-76
2024/01/21 00:27:57;;;;;;;;;39.25;31.00;;;;;-144.62;100.00;60556.56;5039601;28;45552;-75
2024/01/21 00:30:23;;;;;;;;;43.75;36.75;;;;;-144.62;100.00;60556.56;5037661;28;48038;-76
2024/01/21 00:32:48;;;;;;;;;43.50;29.50;;;;;-144.62;100.00;60556.56;5037668;28;45279;-76
2024/01/21 00:35:13;;;;;;;;;37.00;35.25;;;;;-144.62;100.00;60556.56;5037654;28;45577;-77
2024/01/21 00:37:39;;;;;;;;;44.50;37.00;;;;;-144.62;100.00;60556.56;5032700;27;45414;-77
2024/01/21 00:40:05;;;;;;;;;41.25;38.75;;;;;-144.62;100.00;60556.56;5039668;27;46236;-77
2024/01/21 00:42:31;;;;;;;;;29.75;28.25;;;;;-144.62;100.00;60556.56;5030725;28;46002;-76
2024/01/21 00:44:56;;;;;;;;;42.75;32.00;;;;;-144.62;100.00;60556.56;5037402;28;45477;-77
2024/01/21 00:47:22;;;;;;;;;30.25;21.50;;;;;-144.62;100.00;60556.56;5030693;28;46445;-76
2024/01/21 00:49:47;;;;;;;;;37.75;34.00;;;;;-144.62;100.00;60556.56;5038367;28;46285;-77
2024/01/21 00:52:13;;;;;;;;;30.00;25.50;;;;;-144.62;100.00;60556.56;5032607;28;45285;-77
2024/01/21 00:54:38;;;;;;;;;41.50;31.50;;;;;-144.62;100.00;60556.56;5033926;28;45224;-76
2024/01/21 00:57:03;;;;;;;;;38.50;37.25;;;;;-144.62;100.00;60556.56;5028826;27;45433;-77
2024/01/21 00:59:29;;;;;;;;;52.00;44.75;;;;;-144.62;100.00;60556.56;5035732;28;46549;-77
2024/01/21 01:01:54;;;;;;;;;30.50;29.25;;;;;-144.62;100.00;60556.56;5027642;27;45464;-77
2024/01/21 01:04:19;;;;;;;;;28.50;28.50;;;;;-144.62;100.00;60556.56;5035601;28;45545;-77
2024/01/21 01:06:45;;;;;;;;;48.00;34.50;;;;;-144.62;100.00;60556.56;5037294;28;45577;-77
2024/01/21 01:09:10;;;;;;;;;46.75;42.25;;;;;-144.62;100.00;60556.56;5038577;28;45393;-77
2024/01/21 01:11:37;;;;;;;;;44.00;29.00;;;;;-144.62;100.00;60556.56;5033238;28;45418;-77
2024/01/21 01:14:03;;;;;;;;;36.00;26.75;;;;;-144.62;100.00;60556.56;5035740;27;45504;-77
2024/01/21 01:16:28;;;;;;;;;36.75;30.25;;;;;-144.62;100.00;60556.56;5036232;28;45500;-77
2024/01/21 01:18:54;;;;;;;;;43.75;34.75;;;;;-144.62;100.00;60556.56;5037245;28;47189;-74
2024/01/21 01:21:19;;;;;;;;;34.25;31.75;;;;;-144.62;100.00;60556.56;5036739;28;45311;-77
2024/01/21 01:23:44;;;;;;;;;35.00;28.00;;;;;-144.62;100.00;60556.56;5035081;28;47126;-77
2024/01/21 01:26:10;;;;;;;;;30.75;28.25;;;;;-144.62;100.00;60556.56;5036637;28;45433;-77
2024/01/21 01:28:36;;;;;;;;;36.00;33.50;;;;;-144.62;100.00;60556.56;5035016;27;46276;-75
2024/01/21 01:31:01;;;;;;;;;43.50;35.50;;;;;-144.62;100.00;60556.56;5035856;28;46094;-77
2024/01/21 01:33:26;;;;;;;;;45.25;34.75;;;;;-144.62;100.00;60556.56;5039195;28;45230;-75
2024/01/21 01:35:52;;;;;;;;;32.50;30.25;;;;;-144.62;100.00;60556.56;5038182;28;45446;-74
2024/01/21 01:38:17;;;;;;;;;36.25;29.75;;;;;-144.62;100.00;60556.56;5035020;27;48073;-74
2024/01/21 01:40:42;;;;;;;;;37.00;28.25;;;;;-144.62;100.00;60556.56;5048217;28;53532;-75
2024/01/21 01:43:09;;;;;;;;;41.00;35.50;;;;;-144.62;100.00;60556.56;5036097;28;45303;-77
2024/01/21 01:45:35;;;;;;;;;42.75;32.75;;;;;-144.62;100.00;60556.56;5034688;28;45435;-77
2024/01/21 01:48:02;;;;;;;;;48.25;27.25;;;;;-144.62;100.00;60556.56;5036279;27;47082;-73
2024/01/21 01:50:29;;;;;;;;;34.75;26.00;;;;;-144.62;100.00;60556.56;5038867;27;45403;-77
2024/01/21 01:52:55;;;;;;;;;38.25;32.00;;;;;-144.62;100.00;60556.56;5049078;27;45321;-77
2024/01/21 01:55:20;;;;;;;;;33.75;30.00;;;;;-144.62;100.00;60556.56;5038705;27;45221;-77
2024/01/21 01:57:46;;;;;;;;;39.50;37.50;;;;;-144.62;100.00;60556.56;5037178;27;47002;-77
2024/01/21 02:00:13;;;;;;;;;32.50;27.75;;;;;-144.62;100.00;60556.56;5038218;28;45540;-77
2024/01/21 02:02:40;;;;;;;;;36.00;31.50;;;;;-144.62;100.00;60556.56;5031387;28;45355;-77
2024/01/21 02:05:06;;;;;;;;;40.50;33.00;;;;;-144.62;100.00;60556.56;5038871;28;45840;-77
2024/01/21 02:07:31;;;;;;;;;39.75;36.50;;;;;-144.62;100.00;60556.56;5040273;28;48944;-77
2024/01/21 02:09:57;;;;;;;;;34.25;28.75;;;;;-144.62;100.00;60556.56;5039119;28;45996;-77
2024/01/21 02:12:22;;;;;;;;;36.00;34.00;;;;;-144.62;100.00;60556.56;5040838;28;45362;-77
2024/01/21 02:14:48;;;;;;;;;34.25;28.00;;;;;-144.62;100.00;60556.56;5041990;27;45581;-76
2024/01/21 02:17:13;;;;;;;;;32.25;28.25;;;;;-144.62;100.00;60556.56;5034094;28;46718;-77
2024/01/21 02:19:38;;;;;;;;;35.50;26.75;;;;;-144.62;100.00;60556.56;5039459;28;45324;-77
2024/01/21 02:22:04;;;;;;;;;54.75;41.25;;;;;-144.62;100.00;60556.56;5037266;28;45532;-77
2024/01/21 02:24:31;;;;;;;;;37.75;33.50;;;;;-144.62;100.00;60556.56;5041866;28;45573;-77
2024/01/21 02:26:57;;;;;;;;;39.25;32.00;;;;;-144.62;100.00;60556.56;5036790;27;45574;-77
2024/01/21 02:29:22;;;;;;;;;40.00;32.75;;;;;-144.62;100.00;60556.56;5041036;28;45326;-77
2024/01/21 02:31:50;;;;;;;;;41.75;29.00;;;;;-144.62;100.00;60556.56;5037699;28;45420;-77
2024/01/21 02:34:16;;;;;;;;;36.00;30.00;;;;;-144.62;100.00;60556.56;5041188;28;45503;-75
2024/01/21 02:36:41;;;;;;;;;40.25;28.75;;;;;-144.62;100.00;60556.56;5032251;28;46569;-75
2024/01/21 02:39:06;;;;;;;;;32.75;28.00;;;;;-144.62;100.00;60556.56;5041321;28;45453;-75
2024/01/21 02:41:32;;;;;;;;;42.50;29.25;;;;;-144.62;100.00;60556.56;5040255;28;45453;-75
2024/01/21 02:43:57;;;;;;;;;34.25;29.00;;;;;-144.62;100.00;60556.56;5041981;28;45371;-75
2024/01/21 02:46:22;;;;;;;;;31.25;26.25;;;;;-144.62;100.00;60556.56;5037584;27;47987;-75
2024/01/21 02:48:48;;;;;;;;;37.00;29.00;;;;;-144.62;100.00;60556.56;5053562;28;48543;-75
2024/01/21 02:51:14;;;;;;;;;35.50;29.25;;;;;-144.62;100.00;60556.56;5046601;28;45308;-77
2024/01/21 02:53:40;;;;;;;;;30.00;24.50;;;;;-144.62;100.00;60556.56;5042370;27;45567;-77
2024/01/21 02:56:06;;;;;;;;;28.75;26.00;;;;;-144.62;100.00;60556.56;5034836;27;45541;-77
2024/01/21 02:58:31;;;;;;;;;33.50;27.25;;;;;-144.62;100.00;60556.56;5047094;28;45353;-77
2024/01/21 03:00:57;;;;;;;;;37.25;30.50;;;;;-144.62;100.00;60556.56;5035737;28;45228;-77
2024/01/21 03:03:22;;;;;;;;;38.00;32.50;;;;;-144.62;100.00;60556.56;5032784;28;45311;-77
2024/01/21 03:05:47;;;;;;;;;33.50;29.50;;;;;-144.62;100.00;60556.56;5037881;28;46404;-77
2024/01/21 03:08:14;;;;;;;;;34.00;32.00;;;;;-144.62;100.00;60556.56;5033858;28;45255;-75
2024/01/21 03:10:40;;;;;;;;;41.00;31.75;;;;;-144.62;100.00;60556.56;5038852;28;45527;-75
2024/01/21 03:13:07;;;;;;;;;37.00;29.50;;;;;-144.62;100.00;60556.56;5034411;28;45330;-76
2024/01/21 03:15:32;;;;;;;;;38.50;28.25;;;;;-144.62;100.00;60556.56;5038705;28;47222;-76
2024/01/21 03:17:58;;;;;;;;;28.25;21.50;;;;;-144.62;100.00;60556.56;5051552;27;45447;-76
2024/01/21 03:20:23;;;;;;;;;39.75;35.25;;;;;-144.62;100.00;60556.56;5040037;28;56213;-76
2024/01/21 03:22:48;;;;;;;;;33.75;29.00;;;;;-144.62;100.00;60556.56;5040489;28;45486;-76
2024/01/21 03:25:14;;;;;;;;;39.75;29.00;;;;;-144.62;100.00;60556.56;5038936;28;46535;-76
2024/01/21 03:27:39;;;;;;;;;31.50;27.50;;;;;-144.62;100.00;60556.56;5037757;27;45311;-76
2024/01/21 03:30:05;;;;;;;;;33.75;28.75;;;;;-144.62;100.00;60556.56;5038347;28;53737;-76
2024/01/21 03:32:30;;;;;;;;;35.25;29.50;;;;;-144.62;100.00;60556.56;5032716;28;45630;-76
2024/01/21 03:34:55;;;;;;;;;43.50;35.75;;;;;-144.62;100.00;60556.56;5039324;28;45667;-77
2024/01/21 03:37:21;;;;;;;;;36.75;31.00;;;;;-144.62;100.00;60556.56;5034538;27;45336;-77
2024/01/21 03:39:46;;;;;;;;;43.75;28.75;;;;;-144.62;100.00;60556.56;5033826;28;45248;-77
2024/01/21 03:42:11;;;;;;;;;27.00;25.25;;;;;-144.62;100.00;60556.56;5032807;28;45611;-77
2024/01/21 03:44:37;;;;;;;;;31.25;27.25;;;;;-144.62;100.00;60556.56;5040013;28;45389;-76
2024/01/21 03:47:02;;;;;;;;;38.25;29.00;;;;;-144.62;100.00;60556.56;5032049;28;45381;-76
2024/01/21 03:49:28;;;;;;;;;29.00;25.75;;;;;-144.62;100.00;60556.56;5038729;28;45668;-77
2024/01/21 03:51:53;;;;;;;;;35.00;28.25;;;;;-144.62;100.00;60556.56;5042693;27;45239;-77
2024/01/21 03:54:18;;;;;;;;;28.50;27.75;;;;;-144.62;100.00;60556.56;5039302;28;46146;-77
2024/01/21 03:56:44;;;;;;;;;28.25;25.50;;;;;-144.62;100.00;60556.56;5037192;27;45335;-76
2024/01/21 03:59:09;;;;;;;;;37.50;27.00;;;;;-144.62;100.00;60556.56;5040438;27;45388;-77
2024/01/21 04:01:42;;;;;;;;;25.75;20.25;;;;;-144.62;100.00;60556.56;5033174;28;45327;-77
2024/01/21 04:04:08;;;;;;;;;39.25;26.50;;;;;-144.62;100.00;60556.56;5035656;28;45318;-77
2024/01/21 04:06:41;;;;;;;;;28.25;25.75;;;;;-144.62;100.00;60556.56;5034643;28;45513;-77
2024/01/21 04:09:07;;;;;;;;;30.00;25.75;;;;;-144.62;100.00;60556.56;5039020;27;45510;-76
2024/01/21 04:11:32;;;;;;;;;31.00;24.25;;;;;-144.62;100.00;60556.56;5036200;27;45469;-77
2024/01/21 04:13:57;;;;;;;;;25.00;22.00;;;;;-144.62;100.00;60556.56;5035292;28;60833;-76
2024/01/21 04:16:22;;;;;;;;;24.75;20.50;;;;;-144.62;100.00;60556.56;5029738;28;59035;-76
2024/01/21 04:18:48;;;;;;;;;23.25;17.25;;;;;-144.62;100.00;60556.56;5035856;28;47226;-76
2024/01/21 04:21:13;;;;;;;;;28.25;20.25;;;;;-144.62;100.00;60556.56;5039785;28;45352;-76
2024/01/21 04:23:39;;;;;;;;;26.50;26.50;;;;;-144.62;100.00;60556.56;5037782;28;48360;-77
2024/01/21 04:26:04;;;;;;;;;26.50;20.50;;;;;-144.62;100.00;60556.56;5037310;28;46139;-77
2024/01/21 04:28:30;;;;;;;;;29.75;23.25;;;;;-144.62;100.00;60556.56;5039168;28;45376;-77
2024/01/21 04:30:55;;;;;;;;;26.50;21.00;;;;;-144.62;100.00;60556.56;5040552;27;45489;-77
2024/01/21 04:33:20;;;;;;;;;25.25;17.75;;;;;-144.62;100.00;60556.56;5037522;28;45462;-77
2024/01/21 04:35:46;;;;;;;;;23.25;20.25;;;;;-144.62;100.00;60556.56;5033715;28;45393;-77
2024/01/21 04:38:11;;;;;;;;;26.25;20.00;;;;;-144.62;100.00;60556.56;5035852;28;45545;-77
2024/01/21 04:40:37;;;;;;;;;23.25;20.50;;;;;-144.62;100.00;60556.56;5036624;27;45705;-77
2024/01/21 04:43:03;;;;;;;;;25.25;21.00;;;;;-144.62;100.00;60556.56;5038354;28;48268;-77
2024/01/21 04:45:28;;;;;;;;;26.00;20.50;;;;;-144.62;100.00;60556.56;5034555;28;45349;-76
2024/01/21 04:47:54;;;;;;;;;29.25;24.25;;;;;-144.62;100.00;60556.56;5036613;28;52272;-77
2024/01/21 04:50:19;;;;;;;;;26.75;21.75;;;;;-144.62;100.00;60556.56;5039783;28;45158;-77
2024/01/21 04:52:44;;;;;;;;;23.00;20.50;;;;;-144.62;100.00;60556.56;5038107;28;48097;-77
2024/01/21 04:55:10;;;;;;;;;22.00;19.50;;;;;-144.62;100.00;60556.56;5048641;27;45235;-77
2024/01/21 04:57:35;;;;;;;;;20.50;19.75;;;;;-144.62;100.00;60556.56;5028052;27;45300;-77
2024/01/21 05:00:00;;;;;;;;;25.00;20.25;;;;;-144.62;100.00;60556.56;5049470;28;45287;-77
2024/01/21 05:02:26;;;;;;;;;28.00;22.25;;;;;-144.62;100.00;60556.56;5038872;27;46547;-77
2024/01/21 05:04:51;;;;;;;;;28.25;21.50;;;;;-144.62;100.00;60556.56;5037810;28;45398;-76
2024/01/21 05:07:16;;;;;;;;;20.00;20.00;;;;;-144.62;100.00;60556.56;5031770;28;45270;-77
2024/01/21 05:09:42;;;;;;;;;24.75;17.25;;;;;-144.62;100.00;60556.56;5054384;28;45826;-77
2024/01/21 05:12:07;;;;;;;;;23.00;20.50;;;;;-144.62;100.00;60556.56;5032349;28;55041;-77
2024/01/21 05:14:32;;;;;;;;;20.00;20.00;;;;;-144.62;100.00;60556.56;5038257;28;45415;-77
2024/01/21 05:16:57;;;;;;;;;20.75;18.50;;;;;-144.62;100.00;60556.56;5033803;28;45261;-77
2024/01/21 05:19:23;;;;;;;;;27.00;18.00;;;;;-144.62;100.00;60556.56;5038864;28;45499;-77
2024/01/21 05:21:48;;;;;;;;;27.25;24.25;;;;;-144.62;100.00;60556.56;5034894;28;46159;-77
2024/01/21 05:24:13;;;;;;;;;24.75;22.00;;;;;-144.62;100.00;60556.56;5040626;28;53874;-77
2024/01/21 05:26:48;;;;;;;;;20.50;17.25;;;;;-144.62;100.00;60556.56;5038490;27;45358;-77
2024/01/21 05:29:13;;;;;;;;;19.25;15.25;;;;;-144.62;100.00;60556.56;5057484;28;45641;-77
2024/01/21 05:31:38;;;;;;;;;21.00;17.00;;;;;-144.62;100.00;60556.56;5039150;27;49161;-76
2024/01/21 05:34:04;;;;;;;;;20.75;16.00;;;;;-144.62;100.00;60556.56;5042308;28;45611;-76
2024/01/21 05:36:29;;;;;;;;;20.00;17.75;;;;;-144.62;100.00;60556.56;5037943;28;45441;-75
2024/01/21 05:38:54;;;;;;;;;21.00;12.25;;;;;-144.62;100.00;60556.56;5041417;28;45387;-76
2024/01/21 05:41:20;;;;;;;;;20.50;17.00;;;;;-144.62;100.00;60556.56;5032467;28;50420;-76
2024/01/21 05:43:45;;;;;;;;;18.75;17.25;;;;;-144.62;100.00;60556.56;5042613;28;45395;-76
2024/01/21 05:46:11;;;;;;;;;17.25;17.25;;;;;-144.62;100.00;60556.56;5032254;28;45242;-77
2024/01/21 05:48:36;;;;;;;;;17.00;13.00;;;;;-144.62;100.00;60556.56;5041415;28;45363;-76
2024/01/21 05:51:01;;;;;;;;;21.00;18.25;;;;;-144.62;100.00;60556.56;5034248;28;45959;-76
2024/01/21 05:53:27;;;;;;;;;17.00;15.33;;;;;-144.62;100.00;60556.56;5042061;28;45464;-77
2024/01/21 05:55:53;;;;;;;;;19.33;16.33;;;;;-144.62;100.00;60556.56;5031828;28;46007;-77
2024/01/21 05:58:18;;;;;;;;;17.25;17.25;;;;;-144.62;100.00;60556.56;5032360;27;45516;-77
2024/01/21 06:00:44;;;;;;;;;23.25;18.75;;;;;-144.62;100.00;60556.56;5037116;28;45327;-76
2024/01/21 06:03:09;;;;;;;;;24.00;19.00;;;;;-144.62;100.00;60556.56;5028335;28;45160;-77
2024/01/21 06:05:34;;;;;;;;;22.50;18.50;;;;;-144.62;100.00;60556.56;5033514;28;53693;-76
2024/01/21 06:08:00;;;;;;;;;19.00;14.50;;;;;-144.62;100.00;60556.56;5034414;28;45458;-76
2024/01/21 06:10:25;;;;;;;;;18.50;17.75;;;;;-144.62;100.00;60556.56;5041108;28;46477;-76
2024/01/21 06:12:50;;;;;;;;;20.00;16.33;;;;;-144.62;100.00;60556.56;5040545;28;45248;-76
2024/01/21 06:15:16;;;;;;;;;23.00;15.75;;;;;-144.62;100.00;60556.56;5039998;28;45305;-76
2024/01/21 06:17:41;;;;;;;;;17.67;16.00;;;;;-144.62;100.00;60556.56;5034957;27;45229;-76
2024/01/21 06:20:08;;;;;;;;;20.75;14.50;;;;;-144.62;100.00;60556.56;5040756;28;46298;-76
2024/01/21 06:22:35;;;;;;;;;23.00;18.00;;;;;-144.62;100.00;60556.56;5035821;28;45512;-76
2024/01/21 06:25:00;;;;;;;;;20.00;18.25;;;;;-144.62;100.00;60556.56;5040652;28;45400;-77
2024/01/21 06:27:26;;;;;;;;;15.00;15.00;;;;;-144.62;100.00;60556.56;5050688;28;45403;-76
2024/01/21 06:29:51;;;;;;;;;18.25;17.00;;;;;-144.62;100.00;60556.56;5040562;27;58005;-76
2024/01/21 06:32:16;;;;;;;;;22.25;15.25;;;;;-144.62;100.00;60556.56;5052387;27;45316;-76
2024/01/21 06:34:42;;;;;;;;;16.25;15.00;;;;;-144.62;100.00;60556.56;5039849;28;45553;-76
2024/01/21 06:37:07;;;;;;;;;20.00;14.33;;;;;-144.62;100.00;60556.56;5031890;28;45500;-77
2024/01/21 06:39:32;;;;;;;;;11.33;11.33;;;;;-144.62;100.00;60556.56;5039275;28;48094;-76
2024/01/21 06:41:59;;;;;;;;;16.50;16.50;;;;;-144.62;100.00;60556.56;5029176;28;45376;-77
2024/01/21 06:44:25;;;;;;;;;18.33;18.33;;;;;-144.62;100.00;60556.56;5041068;28;45223;-76
2024/01/21 06:46:50;;;;;;;;;20.00;14.75;;;;;-144.62;100.00;60556.56;5033074;28;45625;-77
2024/01/21 06:49:15;;;;;;;;;24.50;17.25;;;;;-144.62;100.00;60556.56;5040694;28;46594;-76
2024/01/21 06:51:46;;;;;;;;;16.75;16.00;;;;;-144.62;100.00;60556.56;5033170;28;45693;-76
2024/01/21 06:54:13;;;;;;;;;16.67;12.00;;;;;-144.62;100.00;60556.56;5041291;28;45347;-76
2024/01/21 06:56:38;;;;;;;;;17.67;17.33;;;;;-144.62;100.00;60556.56;5033486;27;45433;-76
2024/01/21 06:59:04;;;;;;;;;21.25;17.25;;;;;-144.62;100.00;60556.56;5035562;28;46188;-76
2024/01/21 07:01:29;;;;;;;;;14.75;11.00;;;;;-144.62;100.00;60556.56;5036162;28;45355;-76
2024/01/21 07:03:54;;;;;;;;;14.00;13.00;;;;;-144.62;100.00;60556.56;5035533;28;45199;-76
2024/01/21 07:06:20;;;;;;;;;15.00;14.50;;;;;-144.62;100.00;60556.56;5036872;28;46069;-76
2024/01/21 07:08:45;;;;;;;;;23.00;18.33;;;;;-144.62;100.00;60556.56;5033945;28;47362;-76
2024/01/21 07:11:10;;;;;;;;;17.25;16.75;;;;;-144.62;100.00;60556.56;5040110;28;50920;-76
2024/01/21 07:13:36;;;;;;;;;18.00;16.00;;;;;-144.62;100.00;60556.56;5033258;28;47168;-75
2024/01/21 07:16:02;;;;;;;;;6.33;6.33;;;;;-144.62;100.00;60556.56;5040780;28;45557;-75
2024/01/21 07:18:27;;;;;;;;;21.00;16.00;;;;;-144.62;100.00;60556.56;5039754;28;47993;-75
2024/01/21 07:20:52;;;;;;;;;18.67;17.33;;;;;-144.62;100.00;60556.56;5039891;27;45559;-75
2024/01/21 07:23:18;;;;;;;;;15.50;11.50;;;;;-144.62;100.00;60556.56;5036667;28;54401;-75
2024/01/21 07:25:43;;;;;;;;;21.75;19.75;;;;;-144.62;100.00;60556.56;5039860;28;45667;-75
2024/01/21 07:28:08;;;;;;;;;20.50;17.25;;;;;-144.62;100.00;60556.56;5035904;27;47623;-74
2024/01/21 07:30:34;;;;;;;;;8.25;6.75;;;;;-144.62;100.00;60556.56;5036812;27;45290;-74
2024/01/21 07:32:59;;;;;;;;;17.50;16.25;;;;;-144.62;100.00;60556.56;5035809;27;45364;-76
2024/01/21 07:35:24;;;;;;;;;14.25;10.00;;;;;-144.62;100.00;60556.56;5038446;27;45360;-74
2024/01/21 07:37:50;;;;;;;;;16.67;15.00;;;;;-144.62;100.00;60556.56;5033037;28;47470;-73
2024/01/21 07:40:15;;;;;;;;;16.67;15.00;;;;;-144.62;100.00;60556.56;5039265;28;45315;-75
2024/01/21 07:42:40;;;;;;;;;14.00;13.75;;;;;-144.62;100.00;60556.56;5033185;28;45277;-75
2024/01/21 07:45:06;;;;;;;;;29.00;24.00;;;;;-144.62;100.00;60556.56;5039175;27;45588;-73
2024/01/21 07:47:31;;;;;;;;;28.50;24.75;;;;;-144.62;100.00;60556.56;5031515;27;47628;-75
2024/01/21 07:49:57;;;;;;;;;35.00;29.75;;;;;-144.62;100.00;60556.56;5035786;28;45952;-74
2024/01/21 07:52:22;;;;;;;;;21.50;15.50;;;;;-144.62;100.00;60556.56;5039076;27;45383;-74
2024/01/21 07:54:48;;;;;;;;;21.75;20.50;;;;;-144.62;100.00;60556.56;5038871;28;45534;-74
2024/01/21 07:57:13;;;;;;;;;24.00;16.75;;;;;-144.62;100.00;60556.56;5035856;27;47521;-74
2024/01/21 07:59:38;;;;;;;;;18.50;16.50;;;;;-144.62;100.00;60556.56;5036793;28;48566;-74
2024/01/21 08:02:04;;;;;;;;;19.75;18.25;;;;;-144.62;100.00;60556.56;5032638;28;45360;-73
2024/01/21 08:04:29;;;;;;;;;17.67;17.33;;;;;-144.62;100.00;60556.56;5036405;28;45434;-75
2024/01/21 08:06:54;;;;;;;;;17.00;16.00;;;;;-144.62;100.00;60556.56;5034500;28;45511;-75
2024/01/21 08:09:21;;;;;;;;;17.00;14.33;;;;;-144.62;100.00;60556.56;5037299;28;45228;-73
2024/01/21 08:11:46;;;;;;;;;20.75;15.50;;;;;-144.62;100.00;60556.56;5034910;28;45260;-73
2024/01/21 08:14:11;;;;;;;;;15.00;14.00;;;;;-144.62;100.00;60556.56;5036639;27;45281;-74
2024/01/21 08:16:37;;;;;;;;;20.75;19.25;;;;;-144.62;100.00;60556.56;5037009;28;45384;-75
2024/01/21 08:19:03;;;;;;;;;16.00;16.00;;;;;-144.62;100.00;60556.56;5037824;28;45437;-75
2024/01/21 08:21:29;;;;;;;;;19.00;13.33;;;;;-144.62;100.00;60556.56;5036074;28;45385;-75
2024/01/21 08:23:55;;;;;;;;;24.75;20.75;;;;;-144.62;100.00;60556.56;5038549;28;45635;-73
2024/01/21 08:26:20;;;;;;;;;22.33;19.00;;;;;-144.62;100.00;60556.56;5038031;28;46686;-73
2024/01/21 08:28:45;;;;;;;;;23.33;16.00;;;;;-144.62;100.00;60556.56;5038618;27;45394;-74
2024/01/21 08:31:11;;;;;;;;;19.00;19.00;;;;;-144.62;100.00;60556.56;5031346;28;45427;-75
2024/01/21 08:33:36;;;;;;;;;23.33;18.67;;;;;-144.62;100.00;60556.56;5039741;27;45429;-75
2024/01/21 08:36:02;;;;;;;;;22.75;16.50;;;;;-144.62;100.00;60556.56;5030681;28;48039;-75
2024/01/21 08:38:28;;;;;;;;;18.00;18.00;;;;;-144.62;100.00;60556.56;5036358;28;45667;-75
2024/01/21 08:40:53;;;;;;;;;23.25;20.00;;;;;-144.62;100.00;60556.56;5032086;28;45373;-75
2024/01/21 08:43:18;;;;;;;;;11.25;11.25;;;;;-144.62;100.00;60556.56;5036067;28;45347;-75
2024/01/21 08:45:43;;;;;;;;;14.00;11.75;;;;;-144.62;100.00;60556.56;5034087;28;51577;-75
2024/01/21 08:48:09;;;;;;;;;15.50;12.25;;;;;-144.62;100.00;60556.56;5039550;27;46372;-75
2024/01/21 08:50:34;;;;;;;;;18.00;15.33;;;;;-144.62;100.00;60556.56;5038230;28;45406;-75
2024/01/21 08:52:59;;;;;;;;;20.00;18.67;;;;;-144.62;100.00;60556.56;5043475;28;45645;-75
2024/01/21 08:55:25;;;;;;;;;21.00;19.50;;;;;-144.62;100.00;60556.56;5036419;28;47629;-75
2024/01/21 08:57:50;;;;;;;;;19.33;15.67;;;;;-144.62;100.00;60556.56;5028711;27;45270;-75
2024/01/21 09:00:16;;;;;;;;;24.00;19.00;;;;;-144.62;100.00;60556.56;5037373;27;45748;-75
2024/01/21 09:02:41;;;;;;;;;17.25;11.25;;;;;-144.62;100.00;60556.56;5031455;28;45342;-75
2024/01/21 09:05:07;;;;;;;;;17.33;15.00;;;;;-144.62;100.00;60556.56;5034309;28;48491;-75
2024/01/21 09:07:32;;;;;;;;;18.00;15.00;;;;;-144.62;100.00;60556.56;5031935;28;45488;-75
2024/01/21 09:09:59;;;;;;;;;17.00;17.00;;;;;-144.62;100.00;60556.56;5039505;28;45676;-75
2024/01/21 09:12:24;;;;;;;;;20.00;14.00;;;;;-144.62;100.00;60556.56;5032315;28;45502;-76
2024/01/21 09:14:50;;;;;;;;;16.33;15.00;;;;;-144.62;100.00;60556.56;5037593;28;48004;-74
2024/01/21 09:17:15;;;;;;;;;21.75;16.00;;;;;-144.62;100.00;60556.56;5037948;28;45210;-75
2024/01/21 09:19:42;;;;;;;;;19.67;18.33;;;;;-144.62;100.00;60556.56;5038929;28;45284;-74
2024/01/21 09:22:08;;;;;;;;;18.33;18.00;;;;;-144.62;100.00;60556.56;5033852;28;45468;-75
2024/01/21 09:24:33;;;;;;;;;23.67;19.67;;;;;-144.62;100.00;60556.56;5037398;28;47134;-75
2024/01/21 09:26:58;;;;;;;;;20.00;18.25;;;;;-144.62;100.00;60556.56;5035000;28;45389;-75
2024/01/21 09:29:24;;;;;;;;;24.67;18.00;;;;;-144.62;100.00;60556.56;5038923;27;45724;-75
2024/01/21 09:31:55;;;;;;;;;21.33;19.67;;;;;-144.62;100.00;60556.56;5030555;28;45311;-77
2024/01/21 09:34:20;;;;;;;;;15.67;14.00;;;;;-144.62;100.00;60556.56;5037241;28;48003;-76
2024/01/21 09:36:45;;;;;;;;;22.67;17.33;;;;;-144.62;100.00;60556.56;5026808;28;45313;-76
2024/01/21 09:39:11;;;;;;;;;18.33;13.00;;;;;-144.62;100.00;60556.56;5037397;28;49139;-76
2024/01/21 09:41:58;;;;;;;;;12.33;10.67;;;;;-144.62;100.00;60556.56;5036571;28;45528;-76
2024/01/21 09:44:28;;;;;;;;;15.67;15.00;;;;;-144.62;100.00;60556.56;5034276;28;47858;-75
2024/01/21 09:46:56;;;;;;;;;24.00;20.67;;;;;-144.62;100.00;60556.56;5028878;27;45459;-76
2024/01/21 09:49:22;;;;;;;;;21.67;16.00;;;;;-144.62;100.00;60556.56;5039309;27;45446;-76
2024/01/21 09:51:49;;;;;;;;;11.00;8.33;;;;;-144.62;100.00;60556.56;5034621;27;45281;-76
2024/01/21 09:54:14;;;;;;;;;21.00;19.33;;;;;-144.62;100.00;60556.56;5038196;27;45623;-76
2024/01/21 09:56:41;;;;;;;;;21.25;16.50;;;;;-144.62;100.00;60556.56;5030752;27;45324;-76
2024/01/21 09:59:08;;;;;;;;;14.33;14.33;;;;;-144.62;100.00;60556.56;5032795;27;45254;-77
2024/01/21 10:01:36;;;;;;;;;39.25;37.75;;;;;-144.62;100.00;60556.56;5033663;28;45423;-77
2024/01/21 10:04:01;;;;;;;;;15.00;13.33;;;;;-144.62;100.00;60556.56;5033406;28;45477;-77
2024/01/21 10:06:26;;;;;;;;;18.33;15.67;;;;;-144.62;100.00;60556.56;5050509;28;46179;-77
2024/01/21 10:08:52;;;;;;;;;22.00;19.33;;;;;-144.62;100.00;60556.56;5033127;28;45452;-76
2024/01/21 10:11:17;;;;;;;;;26.75;24.50;;;;;-144.62;100.00;60556.56;5056138;28;45519;-76
2024/01/21 10:13:44;;;;;;;;;16.50;16.50;;;;;-144.62;100.00;60556.56;5035218;28;49654;-78
2024/01/21 10:16:10;;;;;;;;;26.25;26.25;;;;;-144.62;100.00;60556.56;5033454;27;45444;-77
2024/01/21 10:18:35;;;;;;;;;19.33;16.33;;;;;-144.62;100.00;60556.56;5036129;28;45262;-77
2024/01/21 10:21:05;;;;;;;;;46.50;41.00;;;;;-144.62;100.00;60556.56;5054598;28;45474;-77
2024/01/21 10:23:32;;;;;;;;;20.00;20.00;;;;;-144.62;100.00;60556.56;5037741;28;46069;-77
2024/01/21 10:25:58;;;;;;;;;22.67;22.33;;;;;-144.62;100.00;60556.56;5039557;28;45372;-77
2024/01/21 10:28:23;;;;;;;;;25.33;19.67;;;;;-144.62;100.00;60556.56;5040115;28;45670;-77
2024/01/21 10:30:49;;;;;;;;;31.00;28.50;;;;;-144.62;100.00;60556.56;5036222;28;45536;-77
2024/01/21 10:33:14;;;;;;;;;21.00;19.00;;;;;-144.62;100.00;60556.56;5036266;28;46498;-77
2024/01/21 10:35:41;;;;;;;;;17.33;15.00;;;;;-144.62;100.00;60556.56;5035321;28;45517;-77
2024/01/21 10:38:11;;;;;;;;;16.00;15.33;;;;;-144.62;100.00;60556.56;5035281;27;45323;-77
2024/01/21 10:40:43;;;;;;;;;13.67;11.67;;;;;-144.62;100.00;60556.56;5035129;27;45650;-77
2024/01/21 10:43:12;;;;;;;;;19.33;19.00;;;;;-144.62;100.00;60556.56;5035144;28;45175;-77
2024/01/21 10:45:38;;;;;;;;;15.33;12.00;;;;;-144.62;100.00;60556.56;5039520;28;45365;-79
2024/01/21 10:48:05;;;;;;;;;20.67;18.00;;;;;-144.62;100.00;60556.56;5041283;27;45287;-78